sensor_id;sensor_type;location;lat;lon;timestamp;P1;durP1;ratioP1;P2;durP2;ratioP2
11287;SDS011;5700;50.996;7.044;2023-04-25T00:00:18;13.02;;;3.80;;
11287;SDS011;5700;50.996;7.044;2023-04-25T00:03:19;9.15;;;3.20;;
11287;SDS011;5700;50.996;7.044;2023-04-25T00:06:22;9.77;;;3.97;;
11287;SDS011;5700;50.996;7.044;2023-04-25T00:09:26;10.73;;;3.85;;
11287;SDS011;5700;50.996;7.044;2023-04-25T00:12:29;11.02;;;3.63;;
11287;SDS011;5700;50.996;7.044;2023-04-25T00:15:30;9.60;;;3.83;;
11287;SDS011;5700;50.996;7.044;2023-04-25T00:18:32;9.52;;;3.47;;
11287;SDS011;5700;50.996;7.044;2023-04-25T00:21:34;7.35;;;3.10;;
11287;SDS011;5700;50.996;7.044;2023-04-25T00:24:37;15.23;;;3.65;;
11287;SDS011;5700;50.996;7.044;2023-04-25T00:27:40;10.95;;;3.83;;
11287;SDS011;5700;50.996;7.044;2023-04-25T00:30:43;10.02;;;3.67;;
11287;SDS011;5700;50.996;7.044;2023-04-25T00:33:44;11.75;;;3.75;;
11287;SDS011;5700;50.996;7.044;2023-04-25T00:36:46;10.50;;;3.22;;
11287;SDS011;5700;50.996;7.044;2023-04-25T00:39:47;11.75;;;3.50;;
11287;SDS011;5700;50.996;7.044;2023-04-25T00:42:50;11.43;;;3.83;;
11287;SDS011;5700;50.996;7.044;2023-04-25T00:45:52;8.55;;;3.28;;
11287;SDS011;5700;50.996;7.044;2023-04-25T00:48:55;9.05;;;3.53;;
11287;SDS011;5700;50.996;7.044;2023-04-25T00:51:57;7.55;;;3.25;;
11287;SDS011;5700;50.996;7.044;2023-04-25T00:54:58;12.75;;;3.63;;
11287;SDS011;5700;50.996;7.044;2023-04-25T00:58:01;9.05;;;3.47;;
11287;SDS011;5700;50.996;7.044;2023-04-25T01:01:03;13.18;;;4.05;;
11287;SDS011;5700;50.996;7.044;2023-04-25T01:04:06;13.98;;;3.90;;
11287;SDS011;5700;50.996;7.044;2023-04-25T01:07:08;11.07;;;4.20;;
11287;SDS011;5700;50.996;7.044;2023-04-25T01:10:10;15.68;;;4.32;;
11287;SDS011;5700;50.996;7.044;2023-04-25T01:13:14;15.20;;;4.30;;
11287;SDS011;5700;50.996;7.044;2023-04-25T01:16:16;8.30;;;4.07;;
11287;SDS011;5700;50.996;7.044;2023-04-25T01:19:17;10.18;;;3.63;;
11287;SDS011;5700;50.996;7.044;2023-04-25T01:22:20;12.18;;;4.13;;
11287;SDS011;5700;50.996;7.044;2023-04-25T01:25:23;11.52;;;3.85;;
11287;SDS011;5700;50.996;7.044;2023-04-25T01:28:25;14.25;;;4.07;;
11287;SDS011;5700;50.996;7.044;2023-04-25T01:31:27;10.05;;;3.80;;
11287;SDS011;5700;50.996;7.044;2023-04-25T01:34:28;14.48;;;3.75;;
11287;SDS011;5700;50.996;7.044;2023-04-25T01:37:32;19.67;;;4.45;;
11287;SDS011;5700;50.996;7.044;2023-04-25T01:40:34;9.85;;;3.67;;
11287;SDS011;5700;50.996;7.044;2023-04-25T01:43:35;13.38;;;3.97;;
11287;SDS011;5700;50.996;7.044;2023-04-25T01:46:37;10.80;;;4.45;;
11287;SDS011;5700;50.996;7.044;2023-04-25T01:49:39;13.15;;;3.53;;
11287;SDS011;5700;50.996;7.044;2023-04-25T01:52:42;14.15;;;4.18;;
11287;SDS011;5700;50.996;7.044;2023-04-25T01:55:44;10.30;;;3.58;;
11287;SDS011;5700;50.996;7.044;2023-04-25T01:58:45;17.15;;;4.25;;
11287;SDS011;5700;50.996;7.044;2023-04-25T02:01:47;12.38;;;3.53;;
11287;SDS011;5700;50.996;7.044;2023-04-25T02:04:48;10.18;;;3.88;;
11287;SDS011;5700;50.996;7.044;2023-04-25T02:07:51;7.32;;;3.53;;
11287;SDS011;5700;50.996;7.044;2023-04-25T02:10:53;15.05;;;3.35;;
11287;SDS011;5700;50.996;7.044;2023-04-25T02:13:54;12.93;;;3.47;;
11287;SDS011;5700;50.996;7.044;2023-04-25T02:16:56;10.10;;;3.40;;
11287;SDS011;5700;50.996;7.044;2023-04-25T02:19:58;9.55;;;3.28;;
11287;SDS011;5700;50.996;7.044;2023-04-25T02:23:01;8.35;;;3.42;;
11287;SDS011;5700;50.996;7.044;2023-04-25T02:26:02;12.88;;;3.55;;
11287;SDS011;5700;50.996;7.044;2023-04-25T02:29:04;8.98;;;3.08;;
11287;SDS011;5700;50.996;7.044;2023-04-25T02:32:06;11.27;;;4.03;;
11287;SDS011;5700;50.996;7.044;2023-04-25T02:35:08;9.35;;;3.60;;
11287;SDS011;5700;50.996;7.044;2023-04-25T02:38:11;7.05;;;3.03;;
11287;SDS011;5700;50.996;7.044;2023-04-25T02:41:12;15.07;;;4.07;;
11287;SDS011;5700;50.996;7.044;2023-04-25T02:44:14;12.20;;;4.07;;
11287;SDS011;5700;50.996;7.044;2023-04-25T02:47:16;8.48;;;3.47;;
11287;SDS011;5700;50.996;7.044;2023-04-25T02:50:19;9.98;;;3.40;;
11287;SDS011;5700;50.996;7.044;2023-04-25T02:53:22;15.35;;;5.30;;
11287;SDS011;5700;50.996;7.044;2023-04-25T02:56:23;15.95;;;5.20;;
11287;SDS011;5700;50.996;7.044;2023-04-25T02:59:26;17.42;;;4.47;;
11287;SDS011;5700;50.996;7.044;2023-04-25T03:02:27;12.23;;;4.88;;
11287;SDS011;5700;50.996;7.044;2023-04-25T03:05:29;9.77;;;3.35;;
11287;SDS011;5700;50.996;7.044;2023-04-25T03:08:31;12.18;;;3.53;;
11287;SDS011;5700;50.996;7.044;2023-04-25T03:11:34;10.55;;;4.20;;
11287;SDS011;5700;50.996;7.044;2023-04-25T03:14:35;6.22;;;2.40;;
11287;SDS011;5700;50.996;7.044;2023-04-25T03:17:37;10.18;;;3.17;;
11287;SDS011;5700;50.996;7.044;2023-04-25T03:20:39;7.95;;;3.15;;
11287;SDS011;5700;50.996;7.044;2023-04-25T03:23:43;7.00;;;2.50;;
11287;SDS011;5700;50.996;7.044;2023-04-25T03:26:44;7.35;;;2.42;;
11287;SDS011;5700;50.996;7.044;2023-04-25T03:29:46;4.32;;;2.10;;
11287;SDS011;5700;50.996;7.044;2023-04-25T03:32:47;5.28;;;2.95;;
11287;SDS011;5700;50.996;7.044;2023-04-25T03:35:48;9.32;;;2.10;;
11287;SDS011;5700;50.996;7.044;2023-04-25T03:38:52;6.05;;;2.65;;
11287;SDS011;5700;50.996;7.044;2023-04-25T03:41:53;8.95;;;2.42;;
11287;SDS011;5700;50.996;7.044;2023-04-25T03:44:55;9.18;;;2.20;;
11287;SDS011;5700;50.996;7.044;2023-04-25T03:47:56;7.18;;;2.50;;
11287;SDS011;5700;50.996;7.044;2023-04-25T03:50:58;4.45;;;2.33;;
11287;SDS011;5700;50.996;7.044;2023-04-25T03:54:01;6.05;;;2.40;;
11287;SDS011;5700;50.996;7.044;2023-04-25T03:57:02;6.07;;;2.50;;
11287;SDS011;5700;50.996;7.044;2023-04-25T04:00:04;9.50;;;2.70;;
11287;SDS011;5700;50.996;7.044;2023-04-25T04:03:07;6.05;;;3.00;;
11287;SDS011;5700;50.996;7.044;2023-04-25T04:06:08;10.00;;;2.80;;
11287;SDS011;5700;50.996;7.044;2023-04-25T04:09:11;12.13;;;3.17;;
11287;SDS011;5700;50.996;7.044;2023-04-25T04:12:13;8.85;;;3.13;;
11287;SDS011;5700;50.996;7.044;2023-04-25T04:15:15;6.18;;;2.92;;
11287;SDS011;5700;50.996;7.044;2023-04-25T04:18:17;11.35;;;2.97;;
11287;SDS011;5700;50.996;7.044;2023-04-25T04:21:18;7.78;;;3.22;;
11287;SDS011;5700;50.996;7.044;2023-04-25T04:24:21;12.90;;;3.80;;
11287;SDS011;5700;50.996;7.044;2023-04-25T04:27:23;10.73;;;3.88;;
11287;SDS011;5700;50.996;7.044;2023-04-25T04:30:24;13.45;;;4.07;;
11287;SDS011;5700;50.996;7.044;2023-04-25T04:33:29;11.10;;;4.00;;
11287;SDS011;5700;50.996;7.044;2023-04-25T04:36:31;13.57;;;4.45;;
11287;SDS011;5700;50.996;7.044;2023-04-25T04:39:34;9.80;;;3.83;;
11287;SDS011;5700;50.996;7.044;2023-04-25T04:42:36;13.85;;;4.50;;
11287;SDS011;5700;50.996;7.044;2023-04-25T04:45:38;15.38;;;4.90;;
11287;SDS011;5700;50.996;7.044;2023-04-25T04:48:40;19.13;;;4.40;;
11287;SDS011;5700;50.996;7.044;2023-04-25T04:51:41;8.02;;;4.03;;
11287;SDS011;5700;50.996;7.044;2023-04-25T04:54:45;13.90;;;4.53;;
11287;SDS011;5700;50.996;7.044;2023-04-25T04:57:47;13.88;;;3.50;;
11287;SDS011;5700;50.996;7.044;2023-04-25T05:00:48;13.05;;;4.50;;
11287;SDS011;5700;50.996;7.044;2023-04-25T05:03:50;20.20;;;4.82;;
11287;SDS011;5700;50.996;7.044;2023-04-25T05:06:51;13.27;;;4.80;;
11287;SDS011;5700;50.996;7.044;2023-04-25T05:09:54;18.00;;;5.45;;
11287;SDS011;5700;50.996;7.044;2023-04-25T05:12:56;15.73;;;5.07;;
11287;SDS011;5700;50.996;7.044;2023-04-25T05:15:57;15.75;;;4.68;;
11287;SDS011;5700;50.996;7.044;2023-04-25T05:18:58;13.85;;;5.50;;
11287;SDS011;5700;50.996;7.044;2023-04-25T05:22:00;15.73;;;4.38;;
11287;SDS011;5700;50.996;7.044;2023-04-25T05:25:03;12.23;;;3.95;;
11287;SDS011;5700;50.996;7.044;2023-04-25T05:28:05;13.32;;;4.88;;
11287;SDS011;5700;50.996;7.044;2023-04-25T05:31:07;12.50;;;3.92;;
11287;SDS011;5700;50.996;7.044;2023-04-25T05:34:08;14.90;;;4.65;;
11287;SDS011;5700;50.996;7.044;2023-04-25T05:37:10;15.00;;;4.45;;
11287;SDS011;5700;50.996;7.044;2023-04-25T05:40:13;13.38;;;3.88;;
11287;SDS011;5700;50.996;7.044;2023-04-25T05:43:14;13.50;;;4.65;;
11287;SDS011;5700;50.996;7.044;2023-04-25T05:46:16;12.38;;;4.57;;
11287;SDS011;5700;50.996;7.044;2023-04-25T05:49:17;15.07;;;4.65;;
11287;SDS011;5700;50.996;7.044;2023-04-25T05:52:19;14.02;;;4.28;;
11287;SDS011;5700;50.996;7.044;2023-04-25T05:55:22;12.18;;;4.15;;
11287;SDS011;5700;50.996;7.044;2023-04-25T05:58:23;11.20;;;3.60;;
11287;SDS011;5700;50.996;7.044;2023-04-25T06:01:25;10.93;;;3.38;;
11287;SDS011;5700;50.996;7.044;2023-04-25T06:04:27;7.40;;;2.45;;
11287;SDS011;5700;50.996;7.044;2023-04-25T06:07:28;7.43;;;2.15;;
11287;SDS011;5700;50.996;7.044;2023-04-25T06:10:32;6.50;;;2.03;;
11287;SDS011;5700;50.996;7.044;2023-04-25T06:13:34;9.88;;;2.55;;
11287;SDS011;5700;50.996;7.044;2023-04-25T06:16:37;8.07;;;2.75;;
11287;SDS011;5700;50.996;7.044;2023-04-25T06:19:39;10.90;;;2.10;;
11287;SDS011;5700;50.996;7.044;2023-04-25T06:22:40;8.77;;;2.80;;
11287;SDS011;5700;50.996;7.044;2023-04-25T06:25:43;13.98;;;2.85;;
11287;SDS011;5700;50.996;7.044;2023-04-25T06:28:44;9.80;;;2.65;;
11287;SDS011;5700;50.996;7.044;2023-04-25T06:31:46;5.20;;;2.28;;
11287;SDS011;5700;50.996;7.044;2023-04-25T06:34:47;7.13;;;2.55;;
11287;SDS011;5700;50.996;7.044;2023-04-25T06:37:49;3.28;;;1.50;;
11287;SDS011;5700;50.996;7.044;2023-04-25T06:40:52;5.80;;;1.70;;
11287;SDS011;5700;50.996;7.044;2023-04-25T06:43:54;5.68;;;1.67;;
11287;SDS011;5700;50.996;7.044;2023-04-25T06:46:56;5.00;;;1.63;;
11287;SDS011;5700;50.996;7.044;2023-04-25T06:49:57;7.72;;;1.60;;
11287;SDS011;5700;50.996;7.044;2023-04-25T06:52:59;3.72;;;1.33;;
11287;SDS011;5700;50.996;7.044;2023-04-25T06:56:02;3.25;;;1.52;;
11287;SDS011;5700;50.996;7.044;2023-04-25T06:59:05;3.55;;;1.40;;
11287;SDS011;5700;50.996;7.044;2023-04-25T07:02:07;9.02;;;1.70;;
11287;SDS011;5700;50.996;7.044;2023-04-25T07:05:08;5.47;;;2.17;;
11287;SDS011;5700;50.996;7.044;2023-04-25T07:08:10;10.05;;;2.63;;
11287;SDS011;5700;50.996;7.044;2023-04-25T07:11:13;4.55;;;1.30;;
11287;SDS011;5700;50.996;7.044;2023-04-25T07:14:14;7.57;;;1.60;;
11287;SDS011;5700;50.996;7.044;2023-04-25T07:17:16;4.90;;;1.73;;
11287;SDS011;5700;50.996;7.044;2023-04-25T07:20:17;5.78;;;1.77;;
11287;SDS011;5700;50.996;7.044;2023-04-25T07:23:19;9.50;;;2.33;;
11287;SDS011;5700;50.996;7.044;2023-04-25T07:26:22;9.68;;;1.80;;
11287;SDS011;5700;50.996;7.044;2023-04-25T07:29:24;3.70;;;1.92;;
11287;SDS011;5700;50.996;7.044;2023-04-25T07:32:25;9.02;;;2.15;;
11287;SDS011;5700;50.996;7.044;2023-04-25T07:35:27;9.63;;;1.83;;
11287;SDS011;5700;50.996;7.044;2023-04-25T07:38:29;7.30;;;2.08;;
11287;SDS011;5700;50.996;7.044;2023-04-25T07:41:32;5.70;;;1.70;;
11287;SDS011;5700;50.996;7.044;2023-04-25T07:44:35;7.22;;;1.95;;
11287;SDS011;5700;50.996;7.044;2023-04-25T07:47:38;8.95;;;2.03;;
11287;SDS011;5700;50.996;7.044;2023-04-25T07:50:40;9.48;;;2.65;;
11287;SDS011;5700;50.996;7.044;2023-04-25T07:53:41;7.93;;;2.17;;
11287;SDS011;5700;50.996;7.044;2023-04-25T07:56:45;4.05;;;2.03;;
11287;SDS011;5700;50.996;7.044;2023-04-25T07:59:47;6.30;;;2.03;;
11287;SDS011;5700;50.996;7.044;2023-04-25T08:02:48;6.07;;;2.22;;
11287;SDS011;5700;50.996;7.044;2023-04-25T08:05:51;8.02;;;2.13;;
11287;SDS011;5700;50.996;7.044;2023-04-25T08:08:52;4.45;;;1.60;;
11287;SDS011;5700;50.996;7.044;2023-04-25T08:11:56;7.88;;;1.70;;
11287;SDS011;5700;50.996;7.044;2023-04-25T08:14:57;7.70;;;1.60;;
11287;SDS011;5700;50.996;7.044;2023-04-25T08:17:59;6.10;;;2.55;;
11287;SDS011;5700;50.996;7.044;2023-04-25T08:21:00;6.43;;;1.70;;
11287;SDS011;5700;50.996;7.044;2023-04-25T08:24:02;2.30;;;1.45;;
11287;SDS011;5700;50.996;7.044;2023-04-25T08:27:05;7.03;;;1.60;;
11287;SDS011;5700;50.996;7.044;2023-04-25T08:30:07;5.20;;;1.75;;
11287;SDS011;5700;50.996;7.044;2023-04-25T08:33:09;2.22;;;1.70;;
11287;SDS011;5700;50.996;7.044;2023-04-25T08:36:11;2.50;;;1.63;;
11287;SDS011;5700;50.996;7.044;2023-04-25T08:39:13;7.28;;;1.45;;
11287;SDS011;5700;50.996;7.044;2023-04-25T08:42:16;3.25;;;1.60;;
11287;SDS011;5700;50.996;7.044;2023-04-25T08:45:18;4.18;;;1.55;;
11287;SDS011;5700;50.996;7.044;2023-04-25T08:48:20;5.97;;;1.10;;
11287;SDS011;5700;50.996;7.044;2023-04-25T08:51:22;2.03;;;1.20;;
11287;SDS011;5700;50.996;7.044;2023-04-25T08:54:25;6.65;;;1.60;;
11287;SDS011;5700;50.996;7.044;2023-04-25T08:57:29;3.90;;;1.33;;
11287;SDS011;5700;50.996;7.044;2023-04-25T09:00:32;7.18;;;1.73;;
11287;SDS011;5700;50.996;7.044;2023-04-25T09:03:34;3.00;;;1.48;;
11287;SDS011;5700;50.996;7.044;2023-04-25T09:06:36;1.88;;;0.98;;
11287;SDS011;5700;50.996;7.044;2023-04-25T09:09:37;5.65;;;1.65;;
11287;SDS011;5700;50.996;7.044;2023-04-25T09:12:40;4.70;;;1.65;;
11287;SDS011;5700;50.996;7.044;2023-04-25T09:15:49;5.50;;;1.48;;
11287;SDS011;5700;50.996;7.044;2023-04-25T09:18:52;2.13;;;0.80;;
11287;SDS011;5700;50.996;7.044;2023-04-25T09:21:53;5.15;;;1.38;;
11287;SDS011;5700;50.996;7.044;2023-04-25T09:24:55;4.22;;;1.50;;
11287;SDS011;5700;50.996;7.044;2023-04-25T09:27:58;3.28;;;1.08;;
11287;SDS011;5700;50.996;7.044;2023-04-25T09:31:05;4.57;;;1.73;;
11287;SDS011;5700;50.996;7.044;2023-04-25T09:34:06;0.70;;;0.70;;
11287;SDS011;5700;50.996;7.044;2023-04-25T09:37:11;3.10;;;1.00;;
11287;SDS011;5700;50.996;7.044;2023-04-25T09:40:13;4.32;;;1.67;;
11287;SDS011;5700;50.996;7.044;2023-04-25T09:43:20;3.33;;;1.40;;
11287;SDS011;5700;50.996;7.044;2023-04-25T09:46:22;5.13;;;1.75;;
11287;SDS011;5700;50.996;7.044;2023-04-25T09:49:25;2.47;;;1.20;;
11287;SDS011;5700;50.996;7.044;2023-04-25T09:52:27;3.28;;;1.50;;
11287;SDS011;5700;50.996;7.044;2023-04-25T09:55:30;4.68;;;1.35;;
11287;SDS011;5700;50.996;7.044;2023-04-25T09:58:34;7.10;;;1.23;;
11287;SDS011;5700;50.996;7.044;2023-04-25T10:01:36;3.17;;;1.13;;
11287;SDS011;5700;50.996;7.044;2023-04-25T10:04:41;3.78;;;1.00;;
11287;SDS011;5700;50.996;7.044;2023-04-25T10:07:43;10.25;;;1.70;;
11287;SDS011;5700;50.996;7.044;2023-04-25T10:10:45;1.50;;;0.88;;
11287;SDS011;5700;50.996;7.044;2023-04-25T10:13:49;3.38;;;0.63;;
11287;SDS011;5700;50.996;7.044;2023-04-25T10:16:51;6.75;;;0.90;;
11287;SDS011;5700;50.996;7.044;2023-04-25T10:19:54;2.78;;;0.82;;
11287;SDS011;5700;50.996;7.044;2023-04-25T10:23:02;3.65;;;1.00;;
11287;SDS011;5700;50.996;7.044;2023-04-25T10:26:14;5.40;;;1.05;;
11287;SDS011;5700;50.996;7.044;2023-04-25T10:29:22;2.63;;;0.82;;
11287;SDS011;5700;50.996;7.044;2023-04-25T10:32:25;2.22;;;0.80;;
11287;SDS011;5700;50.996;7.044;2023-04-25T10:35:27;1.00;;;0.50;;
11287;SDS011;5700;50.996;7.044;2023-04-25T10:38:30;3.30;;;1.25;;
11287;SDS011;5700;50.996;7.044;2023-04-25T10:41:31;7.82;;;1.33;;
11287;SDS011;5700;50.996;7.044;2023-04-25T10:44:34;5.97;;;1.40;;
11287;SDS011;5700;50.996;7.044;2023-04-25T10:47:36;5.82;;;1.42;;
11287;SDS011;5700;50.996;7.044;2023-04-25T10:50:38;7.75;;;1.83;;
11287;SDS011;5700;50.996;7.044;2023-04-25T10:53:40;3.58;;;1.10;;
11287;SDS011;5700;50.996;7.044;2023-04-25T10:56:42;6.68;;;1.20;;
11287;SDS011;5700;50.996;7.044;2023-04-25T10:59:45;6.22;;;1.23;;
11287;SDS011;5700;50.996;7.044;2023-04-25T11:02:48;3.88;;;1.35;;
11287;SDS011;5700;50.996;7.044;2023-04-25T11:05:52;7.82;;;1.40;;
11287;SDS011;5700;50.996;7.044;2023-04-25T11:08:54;5.05;;;1.50;;
11287;SDS011;5700;50.996;7.044;2023-04-25T11:11:57;7.15;;;1.60;;
11287;SDS011;5700;50.996;7.044;2023-04-25T11:15:02;5.07;;;1.15;;
11287;SDS011;5700;50.996;7.044;2023-04-25T11:18:07;4.43;;;1.45;;
11287;SDS011;5700;50.996;7.044;2023-04-25T11:21:08;4.72;;;1.30;;
11287;SDS011;5700;50.996;7.044;2023-04-25T11:24:14;5.55;;;1.23;;
11287;SDS011;5700;50.996;7.044;2023-04-25T11:27:17;3.58;;;1.30;;
11287;SDS011;5700;50.996;7.044;2023-04-25T11:30:20;5.38;;;1.20;;
11287;SDS011;5700;50.996;7.044;2023-04-25T11:33:22;4.53;;;1.40;;
11287;SDS011;5700;50.996;7.044;2023-04-25T11:36:25;5.50;;;1.60;;
11287;SDS011;5700;50.996;7.044;2023-04-25T11:39:27;4.80;;;1.25;;
11287;SDS011;5700;50.996;7.044;2023-04-25T11:42:29;6.32;;;1.45;;
11287;SDS011;5700;50.996;7.044;2023-04-25T11:45:32;6.00;;;1.35;;
11287;SDS011;5700;50.996;7.044;2023-04-25T11:48:36;5.55;;;1.20;;
11287;SDS011;5700;50.996;7.044;2023-04-25T11:51:38;7.45;;;1.83;;
11287;SDS011;5700;50.996;7.044;2023-04-25T11:54:40;2.05;;;0.88;;
11287;SDS011;5700;50.996;7.044;2023-04-25T11:57:42;4.00;;;0.80;;
11287;SDS011;5700;50.996;7.044;2023-04-25T12:00:48;2.88;;;1.00;;
11287;SDS011;5700;50.996;7.044;2023-04-25T12:03:49;3.05;;;1.00;;
11287;SDS011;5700;50.996;7.044;2023-04-25T12:06:51;2.97;;;0.75;;
11287;SDS011;5700;50.996;7.044;2023-04-25T12:09:53;3.53;;;0.82;;
11287;SDS011;5700;50.996;7.044;2023-04-25T12:12:55;5.00;;;0.88;;
11287;SDS011;5700;50.996;7.044;2023-04-25T12:15:58;2.53;;;0.98;;
11287;SDS011;5700;50.996;7.044;2023-04-25T12:19:01;5.35;;;1.42;;
11287;SDS011;5700;50.996;7.044;2023-04-25T12:22:10;4.35;;;1.08;;
11287;SDS011;5700;50.996;7.044;2023-04-25T12:25:33;6.00;;;1.38;;
11287;SDS011;5700;50.996;7.044;2023-04-25T12:28:35;2.25;;;0.70;;
11287;SDS011;5700;50.996;7.044;2023-04-25T12:31:38;2.50;;;1.00;;
11287;SDS011;5700;50.996;7.044;2023-04-25T12:34:40;3.50;;;1.40;;
11287;SDS011;5700;50.996;7.044;2023-04-25T12:37:41;2.85;;;0.98;;
11287;SDS011;5700;50.996;7.044;2023-04-25T12:40:43;1.80;;;0.73;;
11287;SDS011;5700;50.996;7.044;2023-04-25T12:43:45;3.85;;;1.13;;
11287;SDS011;5700;50.996;7.044;2023-04-25T12:46:47;2.50;;;0.93;;
11287;SDS011;5700;50.996;7.044;2023-04-25T12:49:50;3.47;;;0.80;;
11287;SDS011;5700;50.996;7.044;2023-04-25T12:52:52;2.35;;;0.90;;
11287;SDS011;5700;50.996;7.044;2023-04-25T12:55:54;3.25;;;0.90;;
11287;SDS011;5700;50.996;7.044;2023-04-25T12:58:56;3.45;;;0.90;;
11287;SDS011;5700;50.996;7.044;2023-04-25T13:01:58;3.75;;;0.80;;
11287;SDS011;5700;50.996;7.044;2023-04-25T13:05:00;2.13;;;0.85;;
11287;SDS011;5700;50.996;7.044;2023-04-25T13:08:02;3.00;;;1.30;;
11287;SDS011;5700;50.996;7.044;2023-04-25T13:11:04;3.28;;;1.33;;
11287;SDS011;5700;50.996;7.044;2023-04-25T13:14:05;2.35;;;0.82;;
11287;SDS011;5700;50.996;7.044;2023-04-25T13:17:09;2.55;;;0.80;;
11287;SDS011;5700;50.996;7.044;2023-04-25T13:20:11;4.68;;;1.35;;
11287;SDS011;5700;50.996;7.044;2023-04-25T13:23:13;1.80;;;0.80;;
11287;SDS011;5700;50.996;7.044;2023-04-25T13:26:15;5.45;;;0.90;;
11287;SDS011;5700;50.996;7.044;2023-04-25T13:29:16;4.28;;;0.90;;
11287;SDS011;5700;50.996;7.044;2023-04-25T13:32:19;3.30;;;1.00;;
11287;SDS011;5700;50.996;7.044;2023-04-25T13:35:21;4.90;;;0.98;;
11287;SDS011;5700;50.996;7.044;2023-04-25T13:38:22;2.60;;;1.00;;
11287;SDS011;5700;50.996;7.044;2023-04-25T13:41:25;2.20;;;1.05;;
11287;SDS011;5700;50.996;7.044;2023-04-25T13:44:27;3.10;;;1.27;;
11287;SDS011;5700;50.996;7.044;2023-04-25T13:47:30;3.97;;;1.40;;
11287;SDS011;5700;50.996;7.044;2023-04-25T13:50:31;1.45;;;0.93;;
11287;SDS011;5700;50.996;7.044;2023-04-25T13:53:32;4.80;;;1.63;;
11287;SDS011;5700;50.996;7.044;2023-04-25T13:56:34;4.22;;;1.48;;
11287;SDS011;5700;50.996;7.044;2023-04-25T13:59:35;4.25;;;1.10;;
11287;SDS011;5700;50.996;7.044;2023-04-25T14:02:38;3.88;;;0.98;;
11287;SDS011;5700;50.996;7.044;2023-04-25T14:05:40;2.30;;;1.25;;
11287;SDS011;5700;50.996;7.044;2023-04-25T14:08:41;2.47;;;1.52;;
11287;SDS011;5700;50.996;7.044;2023-04-25T14:11:43;2.72;;;0.90;;
11287;SDS011;5700;50.996;7.044;2023-04-25T14:14:44;4.40;;;1.25;;
11287;SDS011;5700;50.996;7.044;2023-04-25T14:17:47;2.50;;;1.10;;
11287;SDS011;5700;50.996;7.044;2023-04-25T14:20:49;6.65;;;1.13;;
11287;SDS011;5700;50.996;7.044;2023-04-25T14:23:51;2.38;;;0.88;;
11287;SDS011;5700;50.996;7.044;2023-04-25T14:26:52;1.52;;;0.75;;
11287;SDS011;5700;50.996;7.044;2023-04-25T14:29:54;6.05;;;2.08;;
11287;SDS011;5700;50.996;7.044;2023-04-25T14:32:56;2.63;;;0.95;;
11287;SDS011;5700;50.996;7.044;2023-04-25T14:35:58;2.65;;;1.17;;
11287;SDS011;5700;50.996;7.044;2023-04-25T14:38:59;3.30;;;0.98;;
11287;SDS011;5700;50.996;7.044;2023-04-25T14:42:01;0.80;;;0.80;;
11287;SDS011;5700;50.996;7.044;2023-04-25T14:45:03;3.40;;;0.65;;
11287;SDS011;5700;50.996;7.044;2023-04-25T14:48:06;1.55;;;0.52;;
11287;SDS011;5700;50.996;7.044;2023-04-25T14:51:08;2.47;;;0.80;;
11287;SDS011;5700;50.996;7.044;2023-04-25T14:54:09;2.78;;;1.00;;
11287;SDS011;5700;50.996;7.044;2023-04-25T14:57:12;2.03;;;0.70;;
11287;SDS011;5700;50.996;7.044;2023-04-25T15:00:13;2.95;;;0.50;;
11287;SDS011;5700;50.996;7.044;2023-04-25T15:03:17;1.85;;;0.50;;
11287;SDS011;5700;50.996;7.044;2023-04-25T15:06:18;8.07;;;1.05;;
11287;SDS011;5700;50.996;7.044;2023-04-25T15:09:20;0.85;;;0.70;;
11287;SDS011;5700;50.996;7.044;2023-04-25T15:12:22;3.75;;;1.15;;
11287;SDS011;5700;50.996;7.044;2023-04-25T15:15:26;0.65;;;0.50;;
11287;SDS011;5700;50.996;7.044;2023-04-25T15:18:29;2.40;;;0.95;;
11287;SDS011;5700;50.996;7.044;2023-04-25T15:21:30;1.67;;;0.73;;
11287;SDS011;5700;50.996;7.044;2023-04-25T15:24:32;2.25;;;0.57;;
11287;SDS011;5700;50.996;7.044;2023-04-25T15:27:33;4.85;;;0.80;;
11287;SDS011;5700;50.996;7.044;2023-04-25T15:30:37;2.80;;;0.93;;
11287;SDS011;5700;50.996;7.044;2023-04-25T15:33:40;2.75;;;0.98;;
11287;SDS011;5700;50.996;7.044;2023-04-25T15:36:42;1.67;;;0.93;;
11287;SDS011;5700;50.996;7.044;2023-04-25T15:39:43;1.83;;;0.93;;
11287;SDS011;5700;50.996;7.044;2023-04-25T15:42:45;4.00;;;1.05;;
11287;SDS011;5700;50.996;7.044;2023-04-25T15:45:50;3.00;;;1.00;;
11287;SDS011;5700;50.996;7.044;2023-04-25T15:48:53;3.65;;;0.93;;
11287;SDS011;5700;50.996;7.044;2023-04-25T15:51:55;2.17;;;0.80;;
11287;SDS011;5700;50.996;7.044;2023-04-25T15:54:56;2.10;;;0.77;;
11287;SDS011;5700;50.996;7.044;2023-04-25T15:57:58;1.85;;;0.60;;
11287;SDS011;5700;50.996;7.044;2023-04-25T16:00:59;2.90;;;0.60;;
11287;SDS011;5700;50.996;7.044;2023-04-25T16:04:02;2.92;;;0.82;;
11287;SDS011;5700;50.996;7.044;2023-04-25T16:07:04;1.15;;;0.88;;
11287;SDS011;5700;50.996;7.044;2023-04-25T16:10:06;1.38;;;0.85;;
11287;SDS011;5700;50.996;7.044;2023-04-25T16:13:08;1.15;;;0.73;;
11287;SDS011;5700;50.996;7.044;2023-04-25T16:16:10;1.92;;;0.60;;
11287;SDS011;5700;50.996;7.044;2023-04-25T16:19:13;1.55;;;0.73;;
11287;SDS011;5700;50.996;7.044;2023-04-25T16:22:15;3.25;;;1.13;;
11287;SDS011;5700;50.996;7.044;2023-04-25T16:25:16;2.83;;;1.00;;
11287;SDS011;5700;50.996;7.044;2023-04-25T16:28:18;2.90;;;1.40;;
11287;SDS011;5700;50.996;7.044;2023-04-25T16:31:19;2.78;;;0.82;;
11287;SDS011;5700;50.996;7.044;2023-04-25T16:34:22;4.03;;;1.15;;
11287;SDS011;5700;50.996;7.044;2023-04-25T16:37:26;9.73;;;1.27;;
11287;SDS011;5700;50.996;7.044;2023-04-25T16:40:27;4.93;;;0.93;;
11287;SDS011;5700;50.996;7.044;2023-04-25T16:43:29;1.92;;;0.60;;
11287;SDS011;5700;50.996;7.044;2023-04-25T16:46:30;1.35;;;0.93;;
11287;SDS011;5700;50.996;7.044;2023-04-25T16:49:33;2.72;;;0.95;;
11287;SDS011;5700;50.996;7.044;2023-04-25T16:52:35;1.95;;;0.70;;
11287;SDS011;5700;50.996;7.044;2023-04-25T16:55:36;2.40;;;0.88;;
11287;SDS011;5700;50.996;7.044;2023-04-25T16:58:38;1.17;;;0.77;;
11287;SDS011;5700;50.996;7.044;2023-04-25T17:01:39;6.10;;;0.90;;
11287;SDS011;5700;50.996;7.044;2023-04-25T17:04:42;3.03;;;0.63;;
11287;SDS011;5700;50.996;7.044;2023-04-25T17:07:43;3.13;;;0.68;;
11287;SDS011;5700;50.996;7.044;2023-04-25T17:10:45;2.05;;;0.90;;
11287;SDS011;5700;50.996;7.044;2023-04-25T17:13:46;1.08;;;0.80;;
11287;SDS011;5700;50.996;7.044;2023-04-25T17:16:48;3.92;;;1.25;;
11287;SDS011;5700;50.996;7.044;2023-04-25T17:19:51;1.45;;;0.68;;
11287;SDS011;5700;50.996;7.044;2023-04-25T17:22:52;1.08;;;0.70;;
11287;SDS011;5700;50.996;7.044;2023-04-25T17:25:54;1.58;;;0.55;;
11287;SDS011;5700;50.996;7.044;2023-04-25T17:28:55;2.25;;;0.93;;
11287;SDS011;5700;50.996;7.044;2023-04-25T17:31:57;1.60;;;0.50;;
11287;SDS011;5700;50.996;7.044;2023-04-25T17:35:00;1.83;;;0.68;;
11287;SDS011;5700;50.996;7.044;2023-04-25T17:38:02;2.00;;;0.98;;
11287;SDS011;5700;50.996;7.044;2023-04-25T17:41:04;1.95;;;0.90;;
11287;SDS011;5700;50.996;7.044;2023-04-25T17:44:07;1.63;;;0.63;;
11287;SDS011;5700;50.996;7.044;2023-04-25T17:47:08;3.58;;;0.88;;
11287;SDS011;5700;50.996;7.044;2023-04-25T17:50:11;3.47;;;1.45;;
11287;SDS011;5700;50.996;7.044;2023-04-25T17:53:15;1.35;;;0.50;;
11287;SDS011;5700;50.996;7.044;2023-04-25T17:56:17;2.17;;;0.90;;
11287;SDS011;5700;50.996;7.044;2023-04-25T17:59:18;2.25;;;0.77;;
11287;SDS011;5700;50.996;7.044;2023-04-25T18:02:20;3.05;;;0.80;;
11287;SDS011;5700;50.996;7.044;2023-04-25T18:05:23;2.40;;;0.90;;
11287;SDS011;5700;50.996;7.044;2023-04-25T18:08:25;3.13;;;1.10;;
11287;SDS011;5700;50.996;7.044;2023-04-25T18:11:26;4.07;;;1.10;;
11287;SDS011;5700;50.996;7.044;2023-04-25T18:14:28;0.95;;;0.70;;
11287;SDS011;5700;50.996;7.044;2023-04-25T18:17:30;1.05;;;0.63;;
11287;SDS011;5700;50.996;7.044;2023-04-25T18:20:34;0.80;;;0.60;;
11287;SDS011;5700;50.996;7.044;2023-04-25T18:23:35;1.70;;;0.85;;
11287;SDS011;5700;50.996;7.044;2023-04-25T18:26:37;3.10;;;1.00;;
11287;SDS011;5700;50.996;7.044;2023-04-25T18:29:39;1.55;;;0.52;;